createdAt,value
2018-08-17T00:00:32.091Z,15.28
2018-08-17T00:03:00.768Z,15.39
2018-08-17T00:05:29.576Z,15.53
2018-08-17T00:07:58.266Z,15.67
2018-08-17T00:10:26.968Z,15.69
2018-08-17T00:12:55.635Z,15.75
2018-08-17T00:15:24.288Z,15.71
2018-08-17T00:17:53.057Z,15.53
2018-08-17T00:20:21.712Z,15.10
2018-08-17T00:22:50.361Z,14.99
2018-08-17T00:25:19.014Z,15.02
2018-08-17T00:27:47.723Z,15.09
2018-08-17T00:30:16.375Z,15.19
2018-08-17T00:32:45.020Z,15.20
2018-08-17T00:35:13.692Z,15.29
2018-08-17T00:37:42.331Z,15.37
2018-08-17T00:40:11.003Z,15.44
2018-08-17T00:42:39.635Z,15.53
2018-08-17T00:45:08.434Z,15.63
2018-08-17T00:47:37.085Z,15.67
2018-08-17T00:50:06.405Z,15.77
2018-08-17T00:52:35.052Z,15.85
2018-08-17T00:55:03.741Z,15.90
2018-08-17T00:57:32.365Z,15.97
2018-08-17T01:00:01.013Z,16.06
2018-08-17T01:02:29.651Z,16.13
2018-08-17T01:04:58.307Z,16.14
2018-08-17T01:07:27.020Z,16.16
2018-08-17T01:09:55.673Z,16.19
2018-08-17T01:12:24.323Z,16.22
2018-08-17T01:14:52.974Z,16.25
2018-08-17T01:17:21.632Z,16.28
2018-08-17T01:19:50.340Z,16.31
2018-08-17T01:22:18.963Z,16.34
2018-08-17T01:24:47.616Z,16.40
2018-08-17T01:27:16.245Z,16.48
2018-08-17T01:29:44.895Z,16.58
2018-08-17T01:32:13.514Z,16.64
2018-08-17T01:34:42.162Z,16.71
2018-08-17T01:37:10.778Z,16.77
2018-08-17T01:39:39.437Z,16.81
2018-08-17T01:42:08.100Z,16.82
2018-08-17T01:44:36.749Z,16.84
2018-08-17T01:47:05.375Z,16.85
2018-08-17T01:49:34.017Z,16.87
2018-08-17T01:52:02.642Z,16.87
2018-08-17T01:54:31.288Z,16.86
2018-08-17T01:56:59.921Z,16.86
2018-08-17T01:59:28.626Z,16.85
2018-08-17T02:01:57.261Z,16.82
2018-08-17T02:04:25.916Z,16.82
2018-08-17T02:06:54.569Z,16.82
2018-08-17T02:09:23.227Z,16.82
2018-08-17T02:11:51.862Z,16.80
2018-08-17T02:14:20.509Z,16.79
2018-08-17T02:16:49.138Z,16.79
2018-08-17T02:19:17.833Z,16.78
2018-08-17T02:21:46.479Z,16.78
2018-08-17T02:24:15.176Z,16.75
2018-08-17T02:26:43.831Z,16.71
2018-08-17T02:29:12.495Z,16.69
2018-08-17T02:31:41.125Z,16.69
2018-08-17T02:34:09.756Z,16.68
2018-08-17T02:36:38.407Z,16.68
2018-08-17T02:39:07.808Z,16.66
2018-08-17T02:41:36.496Z,16.62
2018-08-17T02:44:05.128Z,16.59
2018-08-17T02:46:33.778Z,16.56
2018-08-17T02:49:02.422Z,16.51
2018-08-17T02:51:31.082Z,16.43
2018-08-17T02:53:59.722Z,16.39
2018-08-17T02:56:28.483Z,16.41
2018-08-17T02:58:57.129Z,16.42
2018-08-17T03:01:25.788Z,16.38
2018-08-17T03:03:54.556Z,16.35
2018-08-17T03:06:23.227Z,16.32
2018-08-17T03:08:51.851Z,16.27
2018-08-17T03:11:20.500Z,16.23
2018-08-17T03:13:49.254Z,16.17
2018-08-17T03:16:17.910Z,16.12
2018-08-17T03:18:46.666Z,16.08
2018-08-17T03:21:15.334Z,16.06
2018-08-17T03:23:43.982Z,16.01
2018-08-17T03:26:12.679Z,15.90
2018-08-17T03:28:41.330Z,15.78
2018-08-17T03:31:10.041Z,15.69
2018-08-17T03:33:38.676Z,15.61
2018-08-17T03:36:07.351Z,15.59
2018-08-17T03:38:35.987Z,15.54
2018-08-17T03:41:04.662Z,15.50
2018-08-17T03:43:33.293Z,15.45
2018-08-17T03:46:01.973Z,15.40
2018-08-17T03:48:30.668Z,15.40
2018-08-17T03:50:59.337Z,15.42
2018-08-17T03:53:27.971Z,15.42
2018-08-17T03:55:56.643Z,15.35
2018-08-17T03:58:25.289Z,15.28
2018-08-17T04:00:54.043Z,15.05
2018-08-17T04:03:22.689Z,15.06
2018-08-17T04:05:51.384Z,15.00
2018-08-17T04:08:20.007Z,15.00
2018-08-17T04:10:48.677Z,15.07
2018-08-17T04:13:17.333Z,15.12
2018-08-17T04:15:46.037Z,15.11
2018-08-17T04:18:14.681Z,15.12
2018-08-17T04:20:43.318Z,15.17
2018-08-17T04:23:11.939Z,15.24
2018-08-17T04:25:40.594Z,15.24
2018-08-17T04:28:09.288Z,15.26
2018-08-17T04:30:37.948Z,15.37
2018-08-17T04:33:06.569Z,15.59
2018-08-17T04:35:35.317Z,15.70
2018-08-17T04:38:03.919Z,15.83
2018-08-17T04:40:32.544Z,15.94
2018-08-17T04:43:01.182Z,16.05
2018-08-17T04:45:29.828Z,16.14
2018-08-17T04:47:58.491Z,16.19
2018-08-17T04:50:27.113Z,16.21
2018-08-17T04:52:55.777Z,16.19
2018-08-17T04:55:24.404Z,16.19
2018-08-17T04:57:53.056Z,16.26
2018-08-17T05:00:21.707Z,16.31
2018-08-17T05:02:50.352Z,16.36
2018-08-17T05:05:18.993Z,16.43
2018-08-17T05:07:47.632Z,16.56
2018-08-17T05:10:16.260Z,16.75
2018-08-17T05:12:44.904Z,16.96
2018-08-17T05:15:13.527Z,17.21
2018-08-17T05:17:42.208Z,17.45
2018-08-17T05:20:10.852Z,17.74
2018-08-17T05:22:39.518Z,17.96
2018-08-17T05:25:08.180Z,18.16
2018-08-17T05:27:36.910Z,18.47
2018-08-17T05:30:05.909Z,19.13
2018-08-17T05:32:34.585Z,19.61
2018-08-17T05:35:10.100Z,19.73
2018-08-17T05:37:38.775Z,19.64
2018-08-17T05:40:08.328Z,19.52
2018-08-17T05:42:37.556Z,19.47
2018-08-17T05:45:07.644Z,19.41
2018-08-17T05:47:36.363Z,19.33
2018-08-17T05:50:05.544Z,19.27
2018-08-17T05:52:34.243Z,19.33
2018-08-17T05:55:02.888Z,19.50
2018-08-17T05:57:31.551Z,19.81
2018-08-17T06:00:00.219Z,19.88
2018-08-17T06:02:28.883Z,19.84
2018-08-17T06:04:57.535Z,19.80
2018-08-17T06:07:26.220Z,19.77
2018-08-17T06:09:54.863Z,19.75
2018-08-17T06:12:23.611Z,19.73
2018-08-17T06:14:52.269Z,19.72
2018-08-17T06:17:20.931Z,19.75
2018-08-17T06:19:49.569Z,19.80
2018-08-17T06:22:20.721Z,19.83
2018-08-17T06:24:50.650Z,19.87
2018-08-17T06:27:19.393Z,19.92
2018-08-17T06:29:48.246Z,19.90
2018-08-17T06:32:16.928Z,19.84
2018-08-17T06:34:45.586Z,19.86
2018-08-17T06:37:14.323Z,19.81
2018-08-17T06:39:42.972Z,19.82
2018-08-17T06:42:11.627Z,19.90
2018-08-17T06:44:40.255Z,19.99
2018-08-17T06:47:08.922Z,20.02
2018-08-17T06:49:37.548Z,20.18
2018-08-17T06:52:06.283Z,20.49
2018-08-17T06:54:38.044Z,20.80
2018-08-17T06:57:06.818Z,21.00
2018-08-17T06:59:35.474Z,20.97
2018-08-17T07:02:04.155Z,20.81
2018-08-17T07:04:32.838Z,20.74
2018-08-17T07:07:01.479Z,20.75
2018-08-17T07:09:30.163Z,20.94
2018-08-17T07:11:58.830Z,20.89
2018-08-17T07:14:27.490Z,20.78
2018-08-17T07:16:56.135Z,20.77
2018-08-17T07:19:24.836Z,20.86
2018-08-17T07:21:53.463Z,20.87
2018-08-17T07:24:22.098Z,20.98
2018-08-17T07:26:50.764Z,21.00
2018-08-17T07:29:19.428Z,21.07
2018-08-17T07:31:48.061Z,21.29
2018-08-17T07:34:16.706Z,21.30
2018-08-17T07:36:45.327Z,21.42
2018-08-17T07:39:13.998Z,21.61
2018-08-17T07:41:42.717Z,21.82
2018-08-17T07:44:11.339Z,22.12
2018-08-17T07:46:39.998Z,22.54
2018-08-17T07:49:08.770Z,22.67
2018-08-17T07:51:37.453Z,22.44
2018-08-17T07:54:06.102Z,22.19
2018-08-17T07:56:34.714Z,22.04
2018-08-17T07:59:03.453Z,21.96
2018-08-17T08:01:32.084Z,22.13
2018-08-17T08:04:00.741Z,22.53
2018-08-17T08:06:29.363Z,22.73
2018-08-17T08:08:58.035Z,22.73
2018-08-17T08:11:26.642Z,22.58
2018-08-17T08:13:55.276Z,22.53
2018-08-17T08:16:23.899Z,22.93
2018-08-17T08:18:52.571Z,23.44
2018-08-17T08:21:21.204Z,23.65
2018-08-17T08:23:49.862Z,23.97
2018-08-17T08:26:18.500Z,24.34
2018-08-17T08:28:47.166Z,24.78
2018-08-17T08:31:15.862Z,25.10
2018-08-17T08:33:44.549Z,25.34
2018-08-17T08:36:13.216Z,25.24
2018-08-17T08:38:41.875Z,25.34
2018-08-17T08:41:10.499Z,25.28
2018-08-17T08:43:39.146Z,25.01
2018-08-17T08:46:07.796Z,24.66
2018-08-17T08:48:36.439Z,24.15
2018-08-17T08:51:05.084Z,24.01
2018-08-17T08:53:33.735Z,24.18
2018-08-17T08:56:02.465Z,24.46
2018-08-17T08:58:31.082Z,24.88
2018-08-17T09:00:59.752Z,25.20
2018-08-17T09:03:28.374Z,25.52
2018-08-17T09:05:57.036Z,25.74
2018-08-17T09:08:25.666Z,25.86
2018-08-17T09:10:54.329Z,25.88
2018-08-17T09:13:22.991Z,25.68
2018-08-17T09:15:51.655Z,24.90
2018-08-17T09:18:20.303Z,24.26
2018-08-17T09:20:49.051Z,24.12
2018-08-17T09:23:17.676Z,23.99
2018-08-17T09:25:46.308Z,23.86
2018-08-17T09:28:14.931Z,23.86
2018-08-17T09:30:43.573Z,23.93
2018-08-17T09:33:12.191Z,23.86
2018-08-17T09:35:40.846Z,24.28
2018-08-17T09:38:09.480Z,25.02
2018-08-17T09:40:38.115Z,25.31
2018-08-17T09:43:06.988Z,25.34
2018-08-17T09:45:35.625Z,25.35
2018-08-17T09:48:04.264Z,25.19
2018-08-17T09:50:32.968Z,24.88
2018-08-17T09:53:01.576Z,24.56
2018-08-17T09:55:30.382Z,24.20
2018-08-17T09:57:58.991Z,24.09
2018-08-17T10:00:33.040Z,24.47
2018-08-17T10:03:06.901Z,25.04
2018-08-17T10:05:41.711Z,25.57
2018-08-17T10:08:15.459Z,25.99
2018-08-17T10:10:44.567Z,26.38
2018-08-17T10:13:13.249Z,26.33
2018-08-17T10:15:41.922Z,26.70
2018-08-17T10:18:10.611Z,26.83
2018-08-17T10:20:39.324Z,26.65
2018-08-17T10:23:13.520Z,26.58
2018-08-17T10:25:42.247Z,26.60
2018-08-17T10:28:10.856Z,26.58
2018-08-17T10:30:39.504Z,26.42
2018-08-17T10:33:08.144Z,26.23
2018-08-17T10:35:37.215Z,26.26
2018-08-17T10:38:07.092Z,26.62
2018-08-17T10:40:35.852Z,27.23
2018-08-17T10:43:06.163Z,27.73
2018-08-17T10:45:35.203Z,28.00
2018-08-17T10:48:03.830Z,27.69
2018-08-17T10:50:33.701Z,27.74
2018-08-17T10:53:03.585Z,27.44
2018-08-17T10:55:39.851Z,27.04
2018-08-17T10:58:09.908Z,26.88
2018-08-17T11:00:38.598Z,26.76
2018-08-17T11:03:07.266Z,26.79
2018-08-17T11:05:35.938Z,26.69
2018-08-17T11:08:04.644Z,26.40
2018-08-17T11:10:33.292Z,26.16
2018-08-17T11:13:01.904Z,25.78
2018-08-17T11:15:30.542Z,25.34
2018-08-17T11:17:59.208Z,25.00
2018-08-17T11:20:27.905Z,24.84
2018-08-17T11:22:56.562Z,24.81
2018-08-17T11:25:25.259Z,24.80
2018-08-17T11:27:53.949Z,24.87
2018-08-17T11:30:22.589Z,25.00
2018-08-17T11:32:51.255Z,25.18
2018-08-17T11:35:19.912Z,25.23
2018-08-17T11:37:48.566Z,25.56
2018-08-17T11:40:17.217Z,26.29
2018-08-17T11:42:49.104Z,26.59
2018-08-17T11:45:24.566Z,26.83
2018-08-17T11:47:53.993Z,26.91
2018-08-17T11:50:23.919Z,27.09
2018-08-17T11:52:57.699Z,27.34
2018-08-17T11:55:27.743Z,27.62
2018-08-17T11:57:56.701Z,27.68
2018-08-17T12:00:25.700Z,27.75
2018-08-17T12:02:54.352Z,27.70
2018-08-17T12:05:22.987Z,27.81
2018-08-17T12:07:51.647Z,27.91
2018-08-17T12:10:20.281Z,27.55
2018-08-17T12:12:48.940Z,27.34
2018-08-17T12:15:18.424Z,26.90
2018-08-17T12:17:47.099Z,26.81
2018-08-17T12:20:15.707Z,26.75
2018-08-17T12:22:44.348Z,26.76
2018-08-17T12:25:13.091Z,26.77
2018-08-17T12:27:46.936Z,27.13
2018-08-17T12:30:15.556Z,27.59
2018-08-17T12:32:44.203Z,27.40
2018-08-17T12:35:12.826Z,27.12
2018-08-17T12:37:41.464Z,26.83
2018-08-17T12:40:10.218Z,26.54
2018-08-17T12:42:39.438Z,26.27
2018-08-17T12:45:13.391Z,25.90
2018-08-17T12:47:42.030Z,25.80
2018-08-17T12:50:10.644Z,25.67
2018-08-17T12:52:39.283Z,25.62
2018-08-17T12:55:07.914Z,25.58
2018-08-17T12:57:42.219Z,25.46
2018-08-17T13:00:11.908Z,25.11
2018-08-17T13:02:40.604Z,24.94
2018-08-17T13:05:09.297Z,24.78
2018-08-17T13:07:37.948Z,24.76
2018-08-17T13:10:06.616Z,24.91
2018-08-17T13:12:35.270Z,25.05
2018-08-17T13:15:04.001Z,24.99
2018-08-17T13:17:37.903Z,25.06
2018-08-17T13:20:06.912Z,25.09
2018-08-17T13:22:35.595Z,24.95
2018-08-17T13:25:04.310Z,24.80
2018-08-17T13:27:32.939Z,24.61
2018-08-17T13:30:01.574Z,24.49
2018-08-17T13:32:30.231Z,24.44
2018-08-17T13:34:58.855Z,24.40
2018-08-17T13:37:27.502Z,24.30
2018-08-17T13:39:56.172Z,24.05
2018-08-17T13:42:24.901Z,23.66
2018-08-17T13:44:53.460Z,23.42
2018-08-17T13:47:22.095Z,23.33
2018-08-17T13:49:50.715Z,23.17
2018-08-17T13:52:19.375Z,22.98
2018-08-17T13:54:47.980Z,22.68
2018-08-17T13:57:16.623Z,22.31
2018-08-17T13:59:45.315Z,22.01
2018-08-17T14:02:14.012Z,21.76
2018-08-17T14:04:42.645Z,21.48
2018-08-17T14:07:11.275Z,21.24
2018-08-17T14:09:39.981Z,21.07
2018-08-17T14:12:09.269Z,21.02
2018-08-17T14:14:37.923Z,21.02
2018-08-17T14:17:07.070Z,21.03
2018-08-17T14:19:36.040Z,21.00
2018-08-17T14:22:04.900Z,20.99
2018-08-17T14:24:33.561Z,20.92
2018-08-17T14:27:02.214Z,20.89
2018-08-17T14:29:30.873Z,20.89
2018-08-17T14:31:59.516Z,20.88
2018-08-17T14:34:28.221Z,20.95
2018-08-17T14:36:56.886Z,21.04
2018-08-17T14:39:25.538Z,21.13
2018-08-17T14:41:58.031Z,21.43
2018-08-17T14:44:27.379Z,21.73
2018-08-17T14:46:56.191Z,21.84
2018-08-17T14:49:25.504Z,21.85
2018-08-17T14:51:54.182Z,21.91
2018-08-17T14:54:22.898Z,22.00
2018-08-17T14:56:51.560Z,22.02
2018-08-17T14:59:20.237Z,22.13
2018-08-17T15:01:48.858Z,22.13
2018-08-17T15:04:17.533Z,22.08
2018-08-17T15:06:46.208Z,22.02
2018-08-17T15:09:15.468Z,22.08
2018-08-17T15:11:44.752Z,22.30
2018-08-17T15:14:14.394Z,22.67
2018-08-17T15:16:43.692Z,22.82
2018-08-17T15:19:12.599Z,22.87
2018-08-17T15:21:41.648Z,23.12
2018-08-17T15:24:11.058Z,23.30
2018-08-17T15:26:39.821Z,23.43
2018-08-17T15:29:08.524Z,23.28
2018-08-17T15:31:37.171Z,22.99
2018-08-17T15:34:05.851Z,22.90
2018-08-17T15:36:34.499Z,23.07
2018-08-17T15:39:03.280Z,22.96
2018-08-17T15:41:31.951Z,22.92
2018-08-17T15:44:00.588Z,22.95
2018-08-17T15:46:31.472Z,22.78
2018-08-17T15:49:00.116Z,22.64
2018-08-17T15:51:28.769Z,22.40
2018-08-17T15:53:57.407Z,22.34
2018-08-17T15:56:26.022Z,22.24
2018-08-17T15:58:54.693Z,22.14
2018-08-17T16:01:23.366Z,22.10
2018-08-17T16:03:52.331Z,22.10
2018-08-17T16:06:20.951Z,22.07
2018-08-17T16:08:49.595Z,22.01
2018-08-17T16:11:18.244Z,21.86
2018-08-17T16:13:46.888Z,21.78
2018-08-17T16:16:15.561Z,21.77
2018-08-17T16:18:44.245Z,21.72
2018-08-17T16:21:12.911Z,21.70
2018-08-17T16:23:41.575Z,21.67
2018-08-17T16:26:10.228Z,21.63
2018-08-17T16:28:38.864Z,21.70
2018-08-17T16:31:07.509Z,21.81
2018-08-17T16:33:36.148Z,21.93
2018-08-17T16:36:04.909Z,21.80
2018-08-17T16:38:37.727Z,21.73
2018-08-17T16:41:06.680Z,21.67
2018-08-17T16:43:42.790Z,21.63
2018-08-17T16:46:11.740Z,21.70
2018-08-17T16:48:41.347Z,21.75
2018-08-17T16:51:10.280Z,21.74
2018-08-17T16:53:38.901Z,21.80
2018-08-17T16:56:07.596Z,21.85
2018-08-17T16:58:36.233Z,21.98
2018-08-17T17:01:04.950Z,22.11
2018-08-17T17:03:33.591Z,22.14
2018-08-17T17:06:04.359Z,22.02
2018-08-17T17:08:33.341Z,22.02
2018-08-17T17:11:02.779Z,22.10
2018-08-17T17:13:31.423Z,22.29
2018-08-17T17:16:00.107Z,22.42
2018-08-17T17:18:28.823Z,22.60
2018-08-17T17:20:57.544Z,22.76
2018-08-17T17:23:26.151Z,22.83
2018-08-17T17:25:54.843Z,22.69
2018-08-17T17:28:23.569Z,22.60
2018-08-17T17:30:53.032Z,22.45
2018-08-17T17:33:22.143Z,22.19
2018-08-17T17:35:50.871Z,21.97
2018-08-17T17:38:19.492Z,21.77
2018-08-17T17:40:48.219Z,21.66
2018-08-17T17:43:16.883Z,21.55
2018-08-17T17:45:45.561Z,21.43
2018-08-17T17:48:14.218Z,21.39
2018-08-17T17:50:42.880Z,21.40
2018-08-17T17:53:11.516Z,21.38
2018-08-17T17:55:45.384Z,21.27
2018-08-17T17:58:14.612Z,21.07
2018-08-17T18:00:53.024Z,20.94
2018-08-17T18:03:21.685Z,20.85
2018-08-17T18:05:50.351Z,20.78
2018-08-17T18:08:19.347Z,20.72
2018-08-17T18:10:48.704Z,20.69
2018-08-17T18:13:17.539Z,20.63
2018-08-17T18:15:46.252Z,20.60
2018-08-17T18:18:14.939Z,20.54
2018-08-17T18:20:43.628Z,20.38
2018-08-17T18:23:12.245Z,20.20
2018-08-17T18:25:40.901Z,20.06
2018-08-17T18:28:09.900Z,19.98
2018-08-17T18:30:38.623Z,19.84
2018-08-17T18:33:07.561Z,19.75
2018-08-17T18:35:36.204Z,19.65
2018-08-17T18:38:04.888Z,19.57
2018-08-17T18:40:33.520Z,19.48
2018-08-17T18:43:02.186Z,19.40
2018-08-17T18:45:30.864Z,19.31
2018-08-17T18:47:59.539Z,19.26
2018-08-17T18:50:28.170Z,19.15
2018-08-17T18:52:56.867Z,19.03
2018-08-17T18:55:25.530Z,18.95
2018-08-17T18:57:54.195Z,18.87
2018-08-17T19:00:22.823Z,18.79
2018-08-17T19:02:51.484Z,18.71
2018-08-17T19:05:20.152Z,18.58
2018-08-17T19:07:48.818Z,18.49
2018-08-17T19:10:17.473Z,18.42
2018-08-17T19:12:46.152Z,18.35
2018-08-17T19:15:14.778Z,18.33
2018-08-17T19:17:43.508Z,18.31
2018-08-17T19:20:13.432Z,18.28
2018-08-17T19:22:45.810Z,18.24
2018-08-17T19:25:15.752Z,18.18
2018-08-17T19:27:44.887Z,18.13
2018-08-17T19:30:27.106Z,18.07
2018-08-17T19:32:57.229Z,18.01
2018-08-17T19:35:25.891Z,17.93
2018-08-17T19:37:54.594Z,17.84
2018-08-17T19:40:23.658Z,17.76
2018-08-17T19:42:52.339Z,17.66
2018-08-17T19:45:21.383Z,17.55
2018-08-17T19:47:50.255Z,17.47
2018-08-17T19:50:18.963Z,17.40
2018-08-17T19:52:47.627Z,17.35
2018-08-17T19:55:16.516Z,17.31
2018-08-17T19:57:45.180Z,17.20
2018-08-17T20:00:14.331Z,17.06
2018-08-17T20:02:43.215Z,16.91
2018-08-17T20:05:11.894Z,16.75
2018-08-17T20:07:40.692Z,16.59
2018-08-17T20:10:11.082Z,16.43
2018-08-17T20:12:39.783Z,16.25
2018-08-17T20:15:08.946Z,16.10
2018-08-17T20:17:38.215Z,15.96
2018-08-17T20:20:09.612Z,15.87
2018-08-17T20:22:38.270Z,15.81
2018-08-17T20:25:14.079Z,15.82
2018-08-17T20:27:43.066Z,15.85
2018-08-17T20:30:17.109Z,15.85
2018-08-17T20:32:46.285Z,15.85
2018-08-17T20:35:14.944Z,15.83
2018-08-17T20:37:46.944Z,15.78
2018-08-17T20:40:15.907Z,15.70
2018-08-17T20:42:44.649Z,15.57
2018-08-17T20:45:13.302Z,15.44
2018-08-17T20:47:42.641Z,15.32
2018-08-17T20:50:13.463Z,15.20
2018-08-17T20:52:49.261Z,15.12
2018-08-17T20:55:18.359Z,15.07
2018-08-17T20:57:49.859Z,15.01
2018-08-17T21:00:18.733Z,14.99
2018-08-17T21:02:47.664Z,14.98
2018-08-17T21:05:16.526Z,15.02
2018-08-17T21:07:45.783Z,15.08
2018-08-17T21:10:14.415Z,15.08
2018-08-17T21:12:43.067Z,15.05
2018-08-17T21:15:11.703Z,14.97
2018-08-17T21:17:40.374Z,14.84
2018-08-17T21:20:09.043Z,14.67
2018-08-17T21:22:37.706Z,14.50
2018-08-17T21:25:06.589Z,14.40
2018-08-17T21:27:35.345Z,14.36
2018-08-17T21:30:04.529Z,14.34
2018-08-17T21:32:33.239Z,14.34
2018-08-17T21:35:01.959Z,14.37
2018-08-17T21:37:30.645Z,14.37
2018-08-17T21:39:59.288Z,14.38
2018-08-17T21:42:27.981Z,14.37
2018-08-17T21:44:56.688Z,14.35
2018-08-17T21:47:25.326Z,14.36
2018-08-17T21:50:00.215Z,14.35
2018-08-17T21:52:29.210Z,14.23
2018-08-17T21:54:57.888Z,14.13
2018-08-17T21:57:26.519Z,14.05
2018-08-17T21:59:55.403Z,13.98
2018-08-17T22:02:24.188Z,13.93
2018-08-17T22:04:52.799Z,13.92
2018-08-17T22:07:23.283Z,13.92
2018-08-17T22:09:52.831Z,13.88
2018-08-17T22:12:21.779Z,13.80
2018-08-17T22:14:50.873Z,13.71
2018-08-17T22:17:31.650Z,13.68
2018-08-17T22:20:00.537Z,13.65
2018-08-17T22:22:29.226Z,13.63
2018-08-17T22:24:58.985Z,13.67
2018-08-17T22:27:28.890Z,13.67
2018-08-17T22:29:58.671Z,13.70
2018-08-17T22:32:27.334Z,13.61
2018-08-17T22:34:56.247Z,13.49
2018-08-17T22:37:24.886Z,13.33
2018-08-17T22:39:53.568Z,13.20
2018-08-17T22:42:23.112Z,13.08
2018-08-17T22:44:52.091Z,12.99
2018-08-17T22:47:22.922Z,12.91
2018-08-17T22:49:52.461Z,12.86
2018-08-17T22:52:21.255Z,12.84
2018-08-17T22:54:56.018Z,12.82
2018-08-17T22:57:25.309Z,12.81
2018-08-17T23:00:17.409Z,12.79
2018-08-17T23:02:47.064Z,12.78
2018-08-17T23:05:18.979Z,12.77
2018-08-17T23:07:47.639Z,12.74
2018-08-17T23:10:19.126Z,12.61
2018-08-17T23:12:48.841Z,12.52
2018-08-17T23:15:17.528Z,12.40
2018-08-17T23:17:51.166Z,12.28
2018-08-17T23:20:25.223Z,12.22
2018-08-17T23:22:55.223Z,12.16
2018-08-17T23:25:23.895Z,12.13
2018-08-17T23:27:52.942Z,12.13
2018-08-17T23:30:21.612Z,12.12
2018-08-17T23:32:50.435Z,12.16
2018-08-17T23:35:19.102Z,12.18
2018-08-17T23:37:47.751Z,12.16
2018-08-17T23:40:16.435Z,12.10
2018-08-17T23:42:45.092Z,11.99
2018-08-17T23:45:15.427Z,11.97
2018-08-17T23:47:44.157Z,12.02
2018-08-17T23:50:13.852Z,12.00
2018-08-17T23:52:42.741Z,11.98
2018-08-17T23:55:13.944Z,11.93
2018-08-17T23:57:42.606Z,11.80
